createdAt,value
2018-06-08T00:01:46.610Z,100944.68
2018-06-08T00:04:15.553Z,100946.91
2018-06-08T00:06:44.412Z,100941.94
2018-06-08T00:09:13.317Z,100944.52
2018-06-08T00:11:42.207Z,100945.98
2018-06-08T00:14:11.105Z,100941.83
2018-06-08T00:16:41.216Z,100945.02
2018-06-08T00:19:10.107Z,100934.61
2018-06-08T00:21:39.000Z,100935.98
2018-06-08T00:24:07.949Z,100933.47
2018-06-08T00:26:36.889Z,100933.87
2018-06-08T00:29:05.801Z,100932.48
2018-06-08T00:31:34.807Z,100937.05
2018-06-08T00:34:03.652Z,100940.00
2018-06-08T00:36:32.532Z,100938.01
2018-06-08T00:39:01.417Z,100937.30
2018-06-08T00:41:30.379Z,100936.62
2018-06-08T00:43:59.275Z,100937.23
2018-06-08T00:46:28.077Z,100936.95
2018-06-08T00:48:57.010Z,100934.23
2018-06-08T00:51:25.918Z,100936.73
2018-06-08T00:53:54.809Z,100931.84
2018-06-08T00:57:05.600Z,100939.31
2018-06-08T00:59:34.491Z,100935.70
2018-06-08T01:02:03.357Z,100936.02
2018-06-08T01:04:32.229Z,100934.11
2018-06-08T01:07:01.121Z,100929.41
2018-06-08T01:09:30.030Z,100933.03
2018-06-08T01:11:58.920Z,100932.84
2018-06-08T01:14:34.535Z,100937.53
2018-06-08T01:17:03.489Z,100944.53
2018-06-08T01:19:33.074Z,100945.17
2018-06-08T01:22:02.352Z,100943.25
2018-06-08T01:24:31.488Z,100940.92
2018-06-08T01:27:00.386Z,100946.02
2018-06-08T01:29:29.442Z,100944.84
2018-06-08T01:31:58.311Z,100949.42
2018-06-08T01:34:27.165Z,100951.45
2018-06-08T01:36:56.038Z,100956.42
2018-06-08T01:39:24.905Z,100954.41
2018-06-08T01:41:53.864Z,100956.88
2018-06-08T01:44:22.747Z,100957.61
2018-06-08T01:46:51.581Z,100959.63
2018-06-08T01:49:20.466Z,100963.77
2018-06-08T01:51:49.338Z,100968.64
2018-06-08T01:54:18.222Z,100962.58
2018-06-08T01:56:47.085Z,100965.77
2018-06-08T01:59:15.940Z,100960.67
2018-06-08T02:01:44.832Z,100966.72
2018-06-08T02:04:13.719Z,100968.95
2018-06-08T02:06:42.626Z,100972.01
2018-06-08T02:09:11.488Z,100966.17
2018-06-08T02:11:40.372Z,100964.59
2018-06-08T02:14:09.236Z,100964.99
2018-06-08T02:16:38.109Z,100957.39
2018-06-08T02:19:06.972Z,100959.17
2018-06-08T02:21:35.879Z,100962.34
2018-06-08T02:24:04.746Z,100958.01
2018-06-08T02:26:33.632Z,100952.70
2018-06-08T02:29:02.511Z,100947.50
2018-06-08T02:31:31.412Z,100952.70
2018-06-08T02:34:00.326Z,100946.45
2018-06-08T02:36:29.194Z,100949.30
2018-06-08T02:38:58.073Z,100955.66
2018-06-08T02:41:26.930Z,100954.81
2018-06-08T02:43:55.794Z,100954.73
2018-06-08T02:46:24.667Z,100948.45
2018-06-08T02:48:53.568Z,100947.36
2018-06-08T02:51:22.431Z,100950.00
2018-06-08T02:53:51.375Z,100942.45
2018-06-08T02:56:20.253Z,100947.08
2018-06-08T02:58:49.133Z,100949.59
2018-06-08T03:01:18.015Z,100960.27
2018-06-08T03:03:46.914Z,100952.20
2018-06-08T03:06:15.797Z,100957.70
2018-06-08T03:08:44.834Z,100957.70
2018-06-08T03:11:13.760Z,100956.20
2018-06-08T03:13:42.671Z,100949.59
2018-06-08T03:16:11.581Z,100950.11
2018-06-08T03:18:40.442Z,100949.86
2018-06-08T03:21:09.396Z,100946.16
2018-06-08T03:23:38.391Z,100947.42
2018-06-08T03:26:07.233Z,100946.48
2018-06-08T03:28:36.107Z,100949.10
2018-06-08T03:31:05.009Z,100942.59
2018-06-08T03:33:33.897Z,100945.97
2018-06-08T03:36:02.875Z,100939.52
2018-06-08T03:38:31.705Z,100938.74
2018-06-08T03:41:00.629Z,100939.87
2018-06-08T03:43:29.503Z,100945.52
2018-06-08T03:45:58.454Z,100946.34
2018-06-08T03:48:27.294Z,100945.70
2018-06-08T03:50:56.143Z,100951.20
2018-06-08T03:53:25.045Z,100947.41
2018-06-08T03:55:54.038Z,100948.25
2018-06-08T03:58:22.878Z,100956.12
2018-06-08T04:00:51.770Z,100952.84
2018-06-08T04:03:20.655Z,100958.28
2018-06-08T04:05:49.631Z,100959.60
2018-06-08T04:08:18.519Z,100961.58
2018-06-08T04:10:47.438Z,100957.72
2018-06-08T04:13:16.283Z,100956.25
2018-06-08T04:15:45.216Z,100948.77
2018-06-08T04:18:14.131Z,100948.25
2018-06-08T04:20:42.991Z,100949.98
2018-06-08T04:23:12.004Z,100951.27
2018-06-08T04:25:40.914Z,100939.46
2018-06-08T04:28:09.729Z,100942.39
2018-06-08T04:30:38.605Z,100943.84
2018-06-08T04:33:07.495Z,100943.84
2018-06-08T04:35:36.349Z,100951.90
2018-06-08T04:38:05.273Z,100950.07
2018-06-08T04:40:34.131Z,100949.31
2018-06-08T04:43:03.104Z,100955.02
2018-06-08T04:45:31.994Z,100955.02
2018-06-08T04:48:00.831Z,100966.89
2018-06-08T04:50:29.724Z,100973.77
2018-06-08T04:52:58.596Z,100967.41
2018-06-08T04:55:27.503Z,100964.76
2018-06-08T04:57:56.408Z,100960.17
2018-06-08T05:00:25.302Z,100963.58
2018-06-08T05:02:54.173Z,100960.20
2018-06-08T05:05:23.029Z,100960.13
2018-06-08T05:07:51.883Z,100959.35
2018-06-08T05:10:20.742Z,100967.79
2018-06-08T05:12:49.605Z,100969.31
2018-06-08T05:15:18.465Z,100979.34
2018-06-08T05:17:47.357Z,100976.91
2018-06-08T05:20:16.378Z,100980.09
2018-06-08T05:22:45.264Z,100979.92
2018-06-08T05:25:14.145Z,100975.99
2018-06-08T05:27:43.005Z,100976.98
2018-06-08T05:30:12.426Z,100979.30
2018-06-08T05:32:41.313Z,100986.52
2018-06-08T05:35:10.208Z,100990.64
2018-06-08T05:37:39.084Z,100990.13
2018-06-08T05:40:07.985Z,100986.72
2018-06-08T05:42:36.906Z,100993.36
2018-06-08T05:45:05.747Z,100988.61
2018-06-08T05:47:34.606Z,100989.69
2018-06-08T05:50:03.462Z,100983.95
2018-06-08T05:52:32.338Z,100990.03
2018-06-08T05:55:01.224Z,100988.80
2018-06-08T05:57:30.069Z,100995.52
2018-06-08T05:59:58.967Z,100996.22
2018-06-08T06:02:28.852Z,101002.34
2018-06-08T06:04:57.715Z,101000.30
2018-06-08T06:07:44.262Z,101004.47
2018-06-08T06:10:13.237Z,100997.61
2018-06-08T06:12:42.140Z,100998.03
2018-06-08T06:15:11.092Z,100996.19
2018-06-08T06:17:40.048Z,100996.78
2018-06-08T06:20:08.990Z,100999.65
2018-06-08T06:22:37.884Z,101002.67
2018-06-08T06:25:06.803Z,100995.46
2018-06-08T06:27:35.770Z,100989.06
2018-06-08T06:30:05.668Z,100988.27
2018-06-08T06:32:34.486Z,100991.88
2018-06-08T06:35:03.423Z,100999.47
2018-06-08T06:37:32.504Z,100993.25
2018-06-08T06:40:01.417Z,100995.43
2018-06-08T06:42:30.381Z,100996.06
2018-06-08T06:44:59.347Z,100986.31
2018-06-08T06:47:28.208Z,100983.85
2018-06-08T06:49:57.093Z,100988.59
2018-06-08T06:52:26.018Z,100993.73
2018-06-08T06:54:54.991Z,100997.24
2018-06-08T06:57:23.867Z,100997.61
2018-06-08T06:59:52.812Z,101003.72
2018-06-08T07:02:21.694Z,101006.60
2018-06-08T07:04:50.645Z,101014.91
2018-06-08T07:07:19.606Z,101013.70
2018-06-08T07:09:48.511Z,101012.25
2018-06-08T07:12:17.508Z,101015.20
2018-06-08T07:14:46.478Z,101021.59
2018-06-08T07:17:15.512Z,101026.44
2018-06-08T07:19:44.497Z,101040.20
2018-06-08T07:22:13.396Z,101037.97
2018-06-08T07:24:42.325Z,101034.16
2018-06-08T07:27:11.258Z,101029.13
2018-06-08T07:29:40.232Z,101022.42
2018-06-08T07:32:09.137Z,101023.47
2018-06-08T07:34:38.022Z,101028.91
2018-06-08T07:37:06.998Z,101037.56
2018-06-08T07:39:35.835Z,101044.03
2018-06-08T07:42:04.789Z,101051.00
2018-06-08T07:44:33.711Z,101048.17
2018-06-08T07:47:02.691Z,101045.56
2018-06-08T07:49:31.525Z,101053.30
2018-06-08T07:52:00.470Z,101058.94
2018-06-08T07:54:29.425Z,101069.23
2018-06-08T07:57:02.252Z,101078.58
2018-06-08T07:59:31.764Z,101091.59
2018-06-08T08:02:00.821Z,101097.08
2018-06-08T08:04:29.845Z,101103.45
2018-06-08T08:06:58.825Z,101110.88
2018-06-08T08:09:27.859Z,101107.46
2018-06-08T08:11:56.972Z,101100.63
2018-06-08T08:14:26.016Z,101104.24
2018-06-08T08:16:54.909Z,101108.89
2018-06-08T08:19:24.015Z,101117.16
2018-06-08T08:21:52.914Z,101112.45
2018-06-08T08:24:21.794Z,101102.67
2018-06-08T08:26:50.715Z,101102.16
2018-06-08T08:29:19.636Z,101097.03
2018-06-08T08:31:48.732Z,101099.68
2018-06-08T08:34:17.716Z,101099.78
2018-06-08T08:36:46.613Z,101092.14
2018-06-08T08:39:15.607Z,101088.39
2018-06-08T08:41:44.666Z,101084.27
2018-06-08T08:44:13.528Z,101079.75
2018-06-08T08:46:42.470Z,101082.03
2018-06-08T08:49:11.386Z,101083.93
2018-06-08T08:51:40.304Z,101081.56
2018-06-08T08:54:09.186Z,101089.71
2018-06-08T08:56:38.088Z,101094.09
2018-06-08T08:59:06.970Z,101089.62
2018-06-08T09:01:35.845Z,101095.33
2018-06-08T09:04:04.943Z,101095.88
2018-06-08T09:06:33.855Z,101095.33
2018-06-08T09:09:02.751Z,101101.77
2018-06-08T09:11:31.692Z,101102.63
2018-06-08T09:14:00.580Z,101104.77
2018-06-08T09:16:29.502Z,101107.33
2018-06-08T09:18:58.521Z,101109.64
2018-06-08T09:21:27.454Z,101117.23
2018-06-08T09:23:56.654Z,101118.20
2018-06-08T09:26:25.774Z,101130.34
2018-06-08T09:28:54.746Z,101130.34
2018-06-08T09:31:23.765Z,101131.58
2018-06-08T09:33:52.674Z,101126.08
2018-06-08T09:36:21.554Z,101120.05
2018-06-08T09:38:50.560Z,101122.85
2018-06-08T09:41:19.460Z,101121.42
2018-06-08T09:43:48.367Z,101124.97
2018-06-08T09:46:17.317Z,101134.53
2018-06-08T09:48:46.212Z,101146.48
2018-06-08T09:51:15.253Z,101141.41
2018-06-08T09:53:44.106Z,101145.48
2018-06-08T09:56:13.027Z,101152.02
2018-06-08T09:58:41.927Z,101153.08
2018-06-08T10:01:10.874Z,101159.39
2018-06-08T10:03:39.856Z,101151.98
2018-06-08T10:06:08.860Z,101144.11
2018-06-08T10:08:37.967Z,101140.03
2018-06-08T10:11:06.913Z,101137.36
2018-06-08T10:13:35.942Z,101146.34
2018-06-08T10:16:06.964Z,101141.35
2018-06-08T10:18:33.747Z,101132.77
2018-06-08T10:21:02.727Z,101132.37
2018-06-08T10:23:31.616Z,101113.63
2018-06-08T10:26:00.647Z,101107.61
2018-06-08T10:28:29.731Z,101101.69
2018-06-08T10:30:58.614Z,101098.73
2018-06-08T10:33:27.496Z,101101.70
2018-06-08T10:35:56.365Z,101099.44
2018-06-08T10:38:25.280Z,101096.55
2018-06-08T10:40:54.609Z,101093.80
2018-06-08T10:43:23.477Z,101091.89
2018-06-08T10:45:52.385Z,101090.71
2018-06-08T10:48:21.281Z,101092.66
2018-06-08T10:50:50.208Z,101095.63
2018-06-08T10:53:19.083Z,101090.70
2018-06-08T10:55:47.990Z,101092.55
2018-06-08T10:58:16.996Z,101093.44
2018-06-08T11:00:45.875Z,101100.28
2018-06-08T11:03:14.782Z,101107.08
2018-06-08T11:05:44.170Z,101105.56
2018-06-08T11:08:13.196Z,101107.52
2018-06-08T11:10:42.148Z,101104.66
2018-06-08T11:13:11.079Z,101103.53
2018-06-08T11:15:40.031Z,101103.80
2018-06-08T11:18:08.968Z,101099.33
2018-06-08T11:20:37.954Z,101094.89
2018-06-08T11:23:06.868Z,101097.42
2018-06-08T11:25:35.754Z,101099.40
2018-06-08T11:28:04.644Z,101098.84
2018-06-08T11:30:33.541Z,101098.70
2018-06-08T11:33:02.428Z,101099.44
2018-06-08T11:35:31.285Z,101099.61
2018-06-08T11:38:00.219Z,101096.38
2018-06-08T11:40:29.214Z,101097.30
2018-06-08T11:42:58.035Z,101097.23
2018-06-08T11:45:27.037Z,101101.01
2018-06-08T11:47:55.922Z,101097.32
2018-06-08T11:50:26.304Z,101091.48
2018-06-08T11:52:53.736Z,101088.54
2018-06-08T11:55:22.578Z,101082.64
2018-06-08T11:57:51.425Z,101079.43
2018-06-08T12:00:20.340Z,101069.95
2018-06-08T12:02:49.283Z,101070.08
2018-06-08T12:05:18.140Z,101069.63
2018-06-08T12:07:47.049Z,101068.34
2018-06-08T12:10:15.894Z,101065.44
2018-06-08T12:12:45.010Z,101066.69
2018-06-08T12:15:13.774Z,101062.88
2018-06-08T12:17:42.621Z,101064.32
2018-06-08T12:20:11.552Z,101052.30
2018-06-08T12:22:40.566Z,101048.89
2018-06-08T12:25:09.441Z,101048.34
2018-06-08T12:27:38.347Z,101049.47
2018-06-08T12:30:07.180Z,101041.28
2018-06-08T12:32:36.117Z,101043.44
2018-06-08T12:35:05.051Z,101038.44
2018-06-08T12:37:33.872Z,101037.77
2018-06-08T12:40:02.780Z,101043.73
2018-06-08T12:42:31.665Z,101042.48
2018-06-08T12:45:00.601Z,101038.67
2018-06-08T12:47:29.471Z,101034.02
2018-06-08T12:49:58.309Z,101031.78
2018-06-08T12:52:27.255Z,101033.61
2018-06-08T12:54:56.106Z,101038.39
2018-06-08T12:57:24.974Z,101036.45
2018-06-08T12:59:54.074Z,101032.72
2018-06-08T13:02:22.991Z,101030.62
2018-06-08T13:04:51.940Z,101027.63
2018-06-08T13:07:20.868Z,101033.67
2018-06-08T13:09:49.734Z,101025.17
2018-06-08T13:12:18.593Z,101022.63
2018-06-08T13:14:47.540Z,101022.88
2018-06-08T13:17:16.385Z,101025.07
2018-06-08T13:19:45.241Z,101029.34
2018-06-08T13:22:14.341Z,101029.30
2018-06-08T13:24:43.113Z,101027.84
2018-06-08T13:27:11.984Z,101023.91
2018-06-08T13:29:40.968Z,101027.07
2018-06-08T13:32:09.861Z,101019.89
2018-06-08T13:34:38.826Z,101022.95
2018-06-08T13:37:07.729Z,101021.05
2018-06-08T13:39:36.784Z,101020.94
2018-06-08T13:42:07.101Z,101028.72
2018-06-08T13:44:36.077Z,101031.06
2018-06-08T13:47:05.400Z,101024.38
2018-06-08T13:49:34.271Z,101023.27
2018-06-08T13:52:03.357Z,101027.44
2018-06-08T13:54:33.291Z,101030.30
2018-06-08T13:57:02.635Z,101023.50
2018-06-08T13:59:31.753Z,101027.18
2018-06-08T14:02:01.661Z,101027.89
2018-06-08T14:04:30.435Z,101026.47
2018-06-08T14:06:59.364Z,101030.86
2018-06-08T14:09:28.301Z,101022.13
2018-06-08T14:11:57.300Z,101014.38
2018-06-08T14:14:26.178Z,101017.14
2018-06-08T14:16:55.128Z,101019.91
2018-06-08T14:19:24.034Z,101015.15
2018-06-08T14:21:53.134Z,101012.16
2018-06-08T14:24:22.052Z,101008.81
2018-06-08T14:26:51.025Z,101001.33
2018-06-08T14:29:19.955Z,101016.20
2018-06-08T14:31:48.883Z,101012.52
2018-06-08T14:34:17.795Z,101011.83
2018-06-08T14:36:46.754Z,101008.92
2018-06-08T14:39:15.684Z,101001.88
2018-06-08T14:41:44.576Z,101007.02
2018-06-08T14:44:13.498Z,101002.98
2018-06-08T14:46:42.430Z,101004.30
2018-06-08T14:49:11.370Z,101001.78
2018-06-08T14:51:40.357Z,100997.31
2018-06-08T14:54:09.269Z,100999.11
2018-06-08T14:56:38.192Z,100997.14
2018-06-08T14:59:07.167Z,100992.48
2018-06-08T15:01:36.111Z,100991.73
2018-06-08T15:04:05.007Z,100993.17
2018-06-08T15:06:33.975Z,100990.62
2018-06-08T15:09:02.921Z,100986.66
2018-06-08T15:11:31.856Z,100982.45
2018-06-08T15:14:00.744Z,100984.92
2018-06-08T15:16:29.720Z,100986.21
2018-06-08T15:18:58.652Z,100987.62
2018-06-08T15:21:27.583Z,100983.91
2018-06-08T15:23:56.463Z,100983.59
2018-06-08T15:26:25.490Z,100987.30
2018-06-08T15:28:54.432Z,100976.91
2018-06-08T15:31:23.411Z,100972.16
2018-06-08T15:33:52.350Z,100975.68
2018-06-08T15:36:21.266Z,100974.42
2018-06-08T15:38:50.188Z,100974.42
2018-06-08T15:41:19.146Z,100967.30
2018-06-08T15:43:48.126Z,100967.84
2018-06-08T15:46:17.006Z,100971.24
2018-06-08T15:48:45.874Z,100972.23
2018-06-08T15:51:14.829Z,100968.38
2018-06-08T15:53:43.676Z,100970.09
2018-06-08T15:56:12.694Z,100970.19
2018-06-08T15:58:41.526Z,100973.08
2018-06-08T16:01:10.516Z,100976.27
2018-06-08T16:03:39.430Z,100971.91
2018-06-08T16:06:08.487Z,100975.95
2018-06-08T16:08:37.520Z,100972.50
2018-06-08T16:11:06.419Z,100971.06
2018-06-08T16:13:35.382Z,100973.77
2018-06-08T16:16:04.356Z,100966.56
2018-06-08T16:18:33.293Z,100965.78
2018-06-08T16:21:02.260Z,100966.00
2018-06-08T16:23:31.151Z,100968.09
2018-06-08T16:26:00.174Z,100966.30
2018-06-08T16:28:29.214Z,100958.37
2018-06-08T16:30:58.204Z,100967.74
2018-06-08T16:33:29.487Z,100963.05
2018-06-08T16:35:58.367Z,100960.06
2018-06-08T16:38:27.335Z,100962.14
2018-06-08T16:40:56.345Z,100964.56
2018-06-08T16:43:25.215Z,100963.55
2018-06-08T16:45:54.161Z,100960.42
2018-06-08T16:48:23.129Z,100960.81
2018-06-08T16:50:52.103Z,100958.51
2018-06-08T16:53:21.064Z,100958.32
2018-06-08T16:55:50.158Z,100959.05
2018-06-08T16:58:19.093Z,100964.75
2018-06-08T17:00:47.979Z,100964.72
2018-06-08T17:03:16.960Z,100962.33
2018-06-08T17:05:45.856Z,100967.27
2018-06-08T17:08:14.802Z,100973.48
2018-06-08T17:10:46.029Z,100966.08
2018-06-08T17:13:15.180Z,100960.50
2018-06-08T17:15:44.158Z,100966.69
2018-06-08T17:18:13.061Z,100965.73
2018-06-08T17:20:41.964Z,100967.12
2018-06-08T17:23:13.563Z,100969.82
2018-06-08T17:25:42.522Z,100974.88
2018-06-08T17:28:11.510Z,100969.45
2018-06-08T17:30:40.496Z,100970.67
2018-06-08T17:33:10.134Z,100971.84
2018-06-08T17:35:39.377Z,100966.75
2018-06-08T17:38:08.259Z,100968.77
2018-06-08T17:40:37.230Z,100975.94
2018-06-08T17:43:06.357Z,100977.56
2018-06-08T17:45:36.996Z,100978.34
2018-06-08T17:48:05.891Z,100977.17
2018-06-08T17:50:34.849Z,100983.36
2018-06-08T17:53:03.977Z,100987.82
2018-06-08T17:55:32.847Z,100988.38
2018-06-08T17:58:01.917Z,100984.56
2018-06-08T18:00:30.885Z,100987.52
2018-06-08T18:02:59.839Z,100987.41
2018-06-08T18:05:28.709Z,100985.95
2018-06-08T18:07:57.848Z,100985.84
2018-06-08T18:10:27.039Z,100995.61
2018-06-08T18:12:55.977Z,100990.30
2018-06-08T18:15:25.015Z,100997.84
2018-06-08T18:17:54.245Z,100998.90
2018-06-08T18:20:22.990Z,101000.38
2018-06-08T18:22:51.841Z,100999.53
2018-06-08T18:25:20.790Z,100999.09
2018-06-08T18:27:50.634Z,101005.15
2018-06-08T18:30:19.626Z,101005.56
2018-06-08T18:32:48.537Z,101009.70
2018-06-08T18:35:17.572Z,101014.28
2018-06-08T18:37:46.420Z,101015.42
2018-06-08T18:40:15.424Z,101012.87
2018-06-08T18:42:44.353Z,101012.02
2018-06-08T18:45:13.431Z,101013.64
2018-06-08T18:47:42.382Z,101013.40
2018-06-08T18:50:11.205Z,101017.21
2018-06-08T18:52:40.105Z,101019.56
2018-06-08T18:55:09.073Z,101009.58
2018-06-08T18:57:38.012Z,101011.89
2018-06-08T19:00:06.911Z,101015.55
2018-06-08T19:02:36.121Z,101017.30
2018-06-08T19:05:05.074Z,101016.00
2018-06-08T19:07:34.009Z,101016.61
2018-06-08T19:10:03.009Z,101010.55
2018-06-08T19:12:32.307Z,101005.12
2018-06-08T19:15:01.329Z,101007.27
2018-06-08T19:17:30.159Z,101009.09
2018-06-08T19:20:00.911Z,101005.84
2018-06-08T19:22:29.815Z,101007.66
2018-06-08T19:24:58.747Z,101000.84
2018-06-08T19:27:27.733Z,101005.91
2018-06-08T19:29:56.854Z,100995.52
2018-06-08T19:32:26.039Z,100985.61
2018-06-08T19:34:54.921Z,100989.53
2018-06-08T19:37:23.925Z,100997.56
2018-06-08T19:39:54.352Z,101001.23
2018-06-08T19:42:23.256Z,101000.58
2018-06-08T19:44:52.303Z,101001.56
2018-06-08T19:47:21.203Z,101000.18
2018-06-08T19:49:50.197Z,100997.42
2018-06-08T19:52:19.203Z,100995.72
2018-06-08T19:54:48.083Z,101000.14
2018-06-08T19:57:17.079Z,101001.26
2018-06-08T19:59:46.100Z,101005.00
2018-06-08T20:02:14.986Z,101005.41
2018-06-08T20:04:43.884Z,101005.50
2018-06-08T20:07:12.741Z,101016.19
2018-06-08T20:09:41.740Z,101016.78
2018-06-08T20:12:10.580Z,101016.98
2018-06-08T20:14:39.454Z,101022.48
2018-06-08T20:17:08.306Z,101031.17
2018-06-08T20:19:37.226Z,101033.08
2018-06-08T20:22:06.182Z,101029.86
2018-06-08T20:24:35.274Z,101026.45
2018-06-08T20:27:04.152Z,101036.62
2018-06-08T20:29:33.148Z,101038.41
2018-06-08T20:32:02.446Z,101033.34
2018-06-08T20:34:31.312Z,101032.25
2018-06-08T20:37:00.180Z,101029.36
2018-06-08T20:39:29.135Z,101032.45
2018-06-08T20:41:57.994Z,101035.27
2018-06-08T20:44:26.913Z,101043.48
2018-06-08T20:46:55.783Z,101047.22
2018-06-08T20:49:24.634Z,101046.75
2018-06-08T20:51:53.523Z,101051.50
2018-06-08T20:54:22.896Z,101053.27
2018-06-08T20:57:11.427Z,101058.05
2018-06-08T20:59:40.378Z,101056.27
2018-06-08T21:02:09.473Z,101056.44
2018-06-08T21:04:38.313Z,101051.17
2018-06-08T21:07:07.226Z,101052.08
2018-06-08T21:09:36.100Z,101044.96
2018-06-08T21:12:04.999Z,101045.21
2018-06-08T21:14:33.985Z,101042.50
2018-06-08T21:17:03.077Z,101042.32
2018-06-08T21:19:31.915Z,101039.98
2018-06-08T21:22:01.013Z,101041.03
2018-06-08T21:24:30.116Z,101039.84
2018-06-08T21:26:59.103Z,101037.16
2018-06-08T21:29:28.120Z,101040.34
2018-06-08T21:31:57.141Z,101040.02
2018-06-08T21:34:26.228Z,101036.60
2018-06-08T21:36:55.188Z,101039.88
2018-06-08T21:39:24.175Z,101035.64
2018-06-08T21:41:53.424Z,101032.75
2018-06-08T21:44:22.457Z,101032.09
2018-06-08T21:46:51.400Z,101032.47
2018-06-08T21:49:20.440Z,101038.50
2018-06-08T21:51:49.459Z,101039.09
2018-06-08T21:54:18.810Z,101042.52
2018-06-08T21:56:47.862Z,101045.12
2018-06-08T21:59:16.968Z,101045.91
2018-06-08T22:01:46.003Z,101042.64
2018-06-08T22:04:14.974Z,101039.48
2018-06-08T22:06:44.027Z,101039.81
2018-06-08T22:09:15.915Z,101039.29
2018-06-08T22:11:44.762Z,101037.73
2018-06-08T22:14:13.728Z,101038.81
2018-06-08T22:16:42.749Z,101039.56
2018-06-08T22:19:11.637Z,101034.16
2018-06-08T22:21:40.556Z,101036.61
2018-06-08T22:24:09.514Z,101030.88
2018-06-08T22:26:38.445Z,101032.15
2018-06-08T22:29:07.348Z,101025.47
2018-06-08T22:31:36.295Z,101030.68
2018-06-08T22:34:05.355Z,101027.74
2018-06-08T22:36:34.262Z,101026.03
2018-06-08T22:39:03.213Z,101026.97
2018-06-08T22:41:32.146Z,101023.41
2018-06-08T22:44:01.090Z,101031.52
2018-06-08T22:46:30.013Z,101029.62
2018-06-08T22:48:58.978Z,101031.41
2018-06-08T22:51:27.925Z,101029.73
2018-06-08T22:53:56.876Z,101027.34
2018-06-08T22:56:25.848Z,101026.83
2018-06-08T22:58:54.778Z,101022.52
2018-06-08T23:01:23.680Z,101021.47
2018-06-08T23:03:52.718Z,101018.91
2018-06-08T23:06:21.570Z,101017.20
2018-06-08T23:08:50.484Z,101018.29
2018-06-08T23:11:19.486Z,101021.64
2018-06-08T23:13:48.402Z,101025.23
2018-06-08T23:16:17.379Z,101027.80
2018-06-08T23:18:46.176Z,101028.51
2018-06-08T23:21:15.092Z,101029.51
2018-06-08T23:23:43.970Z,101022.41
2018-06-08T23:26:13.072Z,101028.95
2018-06-08T23:28:42.006Z,101031.92
2018-06-08T23:31:10.908Z,101029.17
2018-06-08T23:33:39.778Z,101024.72
2018-06-08T23:36:08.704Z,101016.47
2018-06-08T23:38:37.669Z,101021.45
2018-06-08T23:41:06.484Z,101020.70
2018-06-08T23:43:35.371Z,101013.20
2018-06-08T23:46:04.307Z,101008.56
2018-06-08T23:48:33.256Z,101009.60
2018-06-08T23:51:02.101Z,101014.62
2018-06-08T23:53:30.985Z,101013.41
2018-06-08T23:55:59.907Z,101015.17
2018-06-08T23:58:28.867Z,101014.44
